Time;durP1;ratioP1;P1;durP2;ratioP2;P2;SDS_P1;SDS_P2;PMS_P1;PMS_P2;Temp;Humidity;BMP_temperature;BMP_pressure;BME280_temperature;BME280_humidity;BME280_pressure;Samples;Min_cycle;Max_cycle;Signal;HPM_P1;HPM_P2
2023/02/10 00:02:16;;;;;;;39.67;21.00;;;1.90;99.90;;;;;;5055923;28;20049;-56
2023/02/10 00:04:43;;;;;;;32.72;19.27;;;1.80;99.90;;;;;;5054891;28;20395;-54
2023/02/10 00:07:09;;;;;;;34.67;18.88;;;1.80;99.90;;;;;;5055695;28;20037;-49
2023/02/10 00:09:36;;;;;;;34.25;18.55;;;1.70;99.90;;;;;;5055624;28;20045;-53
2023/02/10 00:12:03;;;;;;;38.97;20.45;;;1.70;99.90;;;;;;5055997;28;20037;-53
2023/02/10 00:14:30;;;;;;;32.15;19.10;;;1.70;99.90;;;;;;5055943;28;20049;-51
2023/02/10 00:16:56;;;;;;;33.80;17.35;;;1.70;99.90;;;;;;5056063;28;20056;-52
2023/02/10 00:19:23;;;;;;;28.23;17.30;;;1.60;99.90;;;;;;5055977;28;20045;-51
2023/02/10 00:21:50;;;;;;;30.58;16.95;;;1.60;99.90;;;;;;5055797;28;20045;-53
2023/02/10 00:24:17;;;;;;;27.08;17.02;;;1.60;99.90;;;;;;5055688;28;20463;-58
2023/02/10 00:26:43;;;;;;;28.08;16.63;;;1.60;99.90;;;;;;5055362;28;20373;-56
2023/02/10 00:29:10;;;;;;;32.53;16.77;;;1.60;99.90;;;;;;5055513;28;20045;-49
2023/02/10 00:31:38;;;;;;;31.30;15.57;;;1.60;99.90;;;;;;5055524;28;20044;-56
2023/02/10 00:34:04;;;;;;;30.25;15.20;;;1.50;99.90;;;;;;5055675;28;20088;-52
2023/02/10 00:36:31;;;;;;;23.80;15.32;;;1.40;99.90;;;;;;5053180;28;20057;-53
2023/02/10 00:38:58;;;;;;;22.30;15.80;;;1.40;99.90;;;;;;5055008;28;20045;-51
2023/02/10 00:41:25;;;;;;;27.27;14.32;;;1.40;99.90;;;;;;5054122;28;20414;-53
2023/02/10 00:43:52;;;;;;;23.30;13.93;;;1.40;99.90;;;;;;5055234;28;20044;-53
2023/02/10 00:46:19;;;;;;;25.45;14.80;;;1.40;99.90;;;;;;5055482;28;20396;-55
2023/02/10 00:48:46;;;;;;;26.48;15.05;;;1.30;99.90;;;;;;5054078;28;20080;-54
2023/02/10 00:51:12;;;;;;;25.88;14.32;;;1.30;99.90;;;;;;5054812;28;20075;-53
2023/02/10 00:53:39;;;;;;;24.98;14.75;;;1.30;99.90;;;;;;5055380;28;20045;-55
2023/02/10 00:56:06;;;;;;;27.33;14.63;;;1.30;99.90;;;;;;5053530;28;20052;-53
2023/02/10 00:58:33;;;;;;;22.83;14.88;;;1.30;99.90;;;;;;5054639;28;20045;-55
2023/02/10 01:01:01;;;;;;;25.02;14.25;;;1.40;99.90;;;;;;5055059;28;20428;-54
2023/02/10 01:03:28;;;;;;;24.30;14.55;;;1.30;99.90;;;;;;5053190;28;20087;-54
2023/02/10 01:05:54;;;;;;;21.98;14.00;;;1.30;99.90;;;;;;5053461;28;20080;-50
2023/02/10 01:08:21;;;;;;;27.25;13.85;;;1.30;99.90;;;;;;5053521;28;20053;-53
2023/02/10 01:10:48;;;;;;;21.73;13.52;;;1.20;99.90;;;;;;5053321;28;20107;-50
2023/02/10 01:13:15;;;;;;;25.95;13.43;;;1.20;99.90;;;;;;5054653;28;20056;-55
2023/02/10 01:15:41;;;;;;;24.02;12.85;;;1.20;99.90;;;;;;5054729;28;20045;-54
2023/02/10 01:18:08;;;;;;;23.15;11.82;;;1.10;99.90;;;;;;5054499;28;20045;-54
2023/02/10 01:20:36;;;;;;;26.40;13.68;;;1.10;99.90;;;;;;5054701;28;20053;-50
2023/02/10 01:23:02;;;;;;;23.88;12.98;;;1.10;99.90;;;;;;5053121;28;20472;-55
2023/02/10 01:25:30;;;;;;;20.40;12.93;;;1.10;99.90;;;;;;5053554;28;20075;-56
2023/02/10 01:27:56;;;;;;;23.38;12.90;;;1.10;99.90;;;;;;5053913;28;20435;-55
2023/02/10 01:30:23;;;;;;;22.05;13.05;;;1.00;99.90;;;;;;5053287;28;20081;-53
2023/02/10 01:32:50;;;;;;;22.35;12.48;;;1.00;99.90;;;;;;5054581;28;20482;-53
2023/02/10 01:35:17;;;;;;;21.83;12.38;;;1.00;99.90;;;;;;5052969;28;20048;-54
2023/02/10 01:37:44;;;;;;;29.80;13.93;;;1.00;99.90;;;;;;5053992;28;20051;-54
2023/02/10 01:40:10;;;;;;;24.40;13.43;;;1.00;99.90;;;;;;5052647;28;20451;-53
2023/02/10 01:42:38;;;;;;;25.98;12.75;;;1.00;99.90;;;;;;5054182;28;20098;-54
2023/02/10 01:45:05;;;;;;;25.23;13.13;;;1.00;99.90;;;;;;5054045;28;20041;-52
2023/02/10 01:47:31;;;;;;;24.48;13.18;;;0.90;99.90;;;;;;5051506;28;20053;-56
2023/02/10 01:49:58;;;;;;;25.33;12.50;;;0.90;99.90;;;;;;5054382;28;20037;-52
2023/02/10 01:52:26;;;;;;;25.27;12.82;;;0.90;99.90;;;;;;5054460;28;20152;-57
2023/02/10 01:54:54;;;;;;;24.13;12.13;;;0.80;99.90;;;;;;5052496;28;20053;-54
2023/02/10 01:57:21;;;;;;;24.25;12.77;;;0.80;99.90;;;;;;5052536;28;20052;-55
2023/02/10 01:59:47;;;;;;;23.92;12.45;;;0.80;99.90;;;;;;5052920;28;20080;-55
2023/02/10 02:02:14;;;;;;;21.30;11.95;;;0.90;99.90;;;;;;5052474;28;20040;-53
2023/02/10 02:04:41;;;;;;;23.60;12.77;;;0.90;99.90;;;;;;5053748;28;20044;-55
2023/02/10 02:07:08;;;;;;;22.15;12.73;;;0.90;99.90;;;;;;5053602;28;20037;-54
2023/02/10 02:09:35;;;;;;;24.08;12.85;;;0.80;99.90;;;;;;5053647;28;20049;-55
2023/02/10 02:12:02;;;;;;;26.20;13.52;;;0.80;99.90;;;;;;5052032;28;20454;-56
2023/02/10 02:14:28;;;;;;;28.33;16.45;;;0.80;99.90;;;;;;5052611;28;20053;-53
2023/02/10 02:16:55;;;;;;;30.77;17.30;;;0.80;99.90;;;;;;5052471;28;20492;-53
2023/02/10 02:19:22;;;;;;;27.83;15.70;;;0.80;99.90;;;;;;5053398;28;20061;-55
2023/02/10 02:21:49;;;;;;;27.20;14.70;;;0.80;99.90;;;;;;5053282;28;20060;-57
2023/02/10 02:24:17;;;;;;;21.88;13.05;;;0.70;99.90;;;;;;5053262;28;20052;-51
2023/02/10 02:26:44;;;;;;;23.40;12.50;;;0.70;99.90;;;;;;5052361;28;20040;-54
2023/02/10 02:29:10;;;;;;;26.90;13.20;;;0.70;99.90;;;;;;5053415;28;20094;-53
2023/02/10 02:31:37;;;;;;;22.58;13.40;;;0.70;99.90;;;;;;5053201;28;20041;-54
2023/02/10 02:34:04;;;;;;;22.63;13.27;;;0.70;99.90;;;;;;5053157;28;20059;-51
2023/02/10 02:36:31;;;;;;;24.95;13.75;;;0.70;99.90;;;;;;5053467;28;20041;-55
2023/02/10 02:38:58;;;;;;;22.55;13.32;;;0.70;99.90;;;;;;5053129;28;20456;-50
2023/02/10 02:41:24;;;;;;;23.83;11.93;;;0.70;99.90;;;;;;5053133;28;20045;-53
2023/02/10 02:43:52;;;;;;;25.88;13.20;;;0.70;99.90;;;;;;5052293;28;20041;-55
2023/02/10 02:46:19;;;;;;;24.70;13.48;;;0.70;99.90;;;;;;5035399;28;20369;-53
2023/02/10 02:48:45;;;;;;;22.00;13.25;;;0.70;99.90;;;;;;5051847;28;20391;-51
2023/02/10 02:51:12;;;;;;;26.42;13.90;;;0.60;99.90;;;;;;5052906;28;20067;-54
2023/02/10 02:53:39;;;;;;;25.00;13.40;;;0.60;99.90;;;;;;5053016;28;20471;-54
2023/02/10 02:56:06;;;;;;;18.08;12.27;;;0.60;99.90;;;;;;5053207;28;20041;-55
2023/02/10 02:58:33;;;;;;;25.80;13.15;;;0.60;99.90;;;;;;5054322;28;20056;-52
2023/02/10 03:01:04;;;;;;;22.20;12.00;;;0.60;99.90;;;;;;5057218;28;20041;-51
2023/02/10 03:03:33;;;;;;;21.83;13.20;;;0.60;99.90;;;;;;5057004;28;20523;-51
2023/02/10 03:05:59;;;;;;;23.63;13.02;;;0.60;99.90;;;;;;5055860;28;20033;-53
2023/02/10 03:08:26;;;;;;;26.80;13.60;;;0.60;99.90;;;;;;5057338;28;20087;-56
2023/02/10 03:10:53;;;;;;;21.15;11.98;;;0.60;99.90;;;;;;5057103;28;20511;-51
2023/02/10 03:13:20;;;;;;;23.00;12.80;;;0.60;99.90;;;;;;5056649;28;20053;-54
2023/02/10 03:15:47;;;;;;;21.83;11.90;;;0.60;99.90;;;;;;5056804;28;20048;-54
2023/02/10 03:18:14;;;;;;;21.13;11.57;;;0.60;99.90;;;;;;5057024;28;20044;-52
2023/02/10 03:20:41;;;;;;;22.73;12.30;;;0.50;99.90;;;;;;5057146;28;20431;-55
2023/02/10 03:23:07;;;;;;;22.33;13.65;;;0.50;99.90;;;;;;5056858;28;20037;-55
2023/02/10 03:25:34;;;;;;;18.35;10.73;;;0.50;99.90;;;;;;5056628;28;20037;-56
2023/02/10 03:28:01;;;;;;;17.85;11.25;;;0.50;99.90;;;;;;5056842;28;20036;-57
2023/02/10 03:30:28;;;;;;;20.42;11.50;;;0.40;99.90;;;;;;5056720;28;20044;-54
2023/02/10 03:32:55;;;;;;;21.05;11.30;;;0.40;99.90;;;;;;5056421;28;20072;-52
2023/02/10 03:35:21;;;;;;;19.52;11.05;;;0.40;99.90;;;;;;5056282;28;20075;-56
2023/02/10 03:37:48;;;;;;;18.13;10.85;;;0.40;99.90;;;;;;5056327;28;20099;-55
2023/02/10 03:40:15;;;;;;;18.85;10.75;;;0.30;99.90;;;;;;5056738;28;20037;-54
2023/02/10 03:42:42;;;;;;;15.68;10.70;;;0.30;99.90;;;;;;5056239;28;20045;-51
2023/02/10 03:45:09;;;;;;;20.40;10.93;;;0.30;99.90;;;;;;5056434;28;20036;-53
2023/02/10 03:47:35;;;;;;;18.48;10.70;;;0.20;99.90;;;;;;5056333;28;20498;-54
2023/02/10 03:50:02;;;;;;;16.23;10.27;;;0.30;99.90;;;;;;5056411;28;20487;-57
2023/02/10 03:52:29;;;;;;;15.73;10.25;;;0.30;99.90;;;;;;5055282;28;20071;-52
2023/02/10 03:54:55;;;;;;;17.35;10.63;;;0.30;99.90;;;;;;5056064;28;20048;-50
2023/02/10 03:57:22;;;;;;;16.13;10.50;;;0.30;99.90;;;;;;5055988;28;20480;-50
2023/02/10 03:59:49;;;;;;;18.50;10.55;;;0.30;99.90;;;;;;5055992;28;20055;-53
2023/02/10 04:02:16;;;;;;;19.60;11.48;;;0.30;99.90;;;;;;5054921;28;20080;-51
2023/02/10 04:04:43;;;;;;;15.55;10.15;;;0.20;99.90;;;;;;5056099;28;20041;-53
2023/02/10 04:07:10;;;;;;;22.35;10.55;;;0.20;99.90;;;;;;5055593;28;20543;-51
2023/02/10 04:09:36;;;;;;;17.83;10.43;;;0.20;99.90;;;;;;5053985;28;20866;-52
2023/02/10 04:12:03;;;;;;;18.25;10.88;;;0.20;99.90;;;;;;5055926;28;20069;-54
2023/02/10 04:14:30;;;;;;;19.00;10.30;;;0.20;99.90;;;;;;5056193;28;20068;-51
2023/02/10 04:16:57;;;;;;;19.83;10.55;;;0.20;99.90;;;;;;5055781;28;20064;-50
2023/02/10 04:19:23;;;;;;;19.05;10.90;;;0.20;99.90;;;;;;5056043;28;20114;-53
2023/02/10 04:21:50;;;;;;;24.27;12.73;;;0.20;99.90;;;;;;5055629;28;20166;-51
2023/02/10 04:24:17;;;;;;;16.45;11.15;;;0.20;99.90;;;;;;5055660;28;20537;-51
2023/02/10 04:26:43;;;;;;;21.55;11.32;;;0.20;99.90;;;;;;5055865;28;20095;-55
2023/02/10 04:29:10;;;;;;;18.92;11.60;;;0.20;99.90;;;;;;5054100;28;20044;-52
2023/02/10 04:31:37;;;;;;;22.40;12.00;;;0.20;99.90;;;;;;5055671;28;20384;-49
2023/02/10 04:34:04;;;;;;;26.55;12.50;;;0.20;99.90;;;;;;5055145;28;20041;-52
2023/02/10 04:36:30;;;;;;;21.20;11.70;;;0.10;99.90;;;;;;5055431;28;20087;-53
2023/02/10 04:38:57;;;;;;;23.05;11.63;;;0.10;99.90;;;;;;5055553;28;20075;-50
2023/02/10 04:41:24;;;;;;;19.55;11.75;;;0.10;99.90;;;;;;5055456;28;20110;-52
2023/02/10 04:43:51;;;;;;;18.40;10.48;;;0.20;99.90;;;;;;5055519;28;20049;-52
2023/02/10 04:46:17;;;;;;;19.55;10.85;;;0.20;99.90;;;;;;5055271;28;20036;-49
2023/02/10 04:48:44;;;;;;;19.88;10.10;;;0.20;99.90;;;;;;5055355;28;20136;-55
2023/02/10 04:51:11;;;;;;;19.30;10.40;;;0.20;99.90;;;;;;5054819;28;20037;-52
2023/02/10 04:53:39;;;;;;;20.70;10.07;;;0.20;99.90;;;;;;5055336;28;20465;-50
2023/02/10 04:56:05;;;;;;;19.10;10.10;;;0.20;99.90;;;;;;5054673;28;20439;-52
2023/02/10 04:58:32;;;;;;;22.85;10.80;;;0.10;99.90;;;;;;5055064;28;20079;-52
2023/02/10 05:00:59;;;;;;;20.20;11.52;;;0.10;99.90;;;;;;5055249;28;20045;-53
2023/02/10 05:03:25;;;;;;;20.20;10.65;;;0.00;99.90;;;;;;5055125;28;20102;-52
2023/02/10 05:05:52;;;;;;;26.35;11.00;;;0.10;99.90;;;;;;5055114;28;20116;-53
2023/02/10 05:08:22;;;;;;;21.80;11.40;;;0.10;99.90;;;;;;5054733;28;20115;-52
2023/02/10 05:10:49;;;;;;;21.17;11.68;;;0.10;99.90;;;;;;5055006;28;20044;-48
2023/02/10 05:13:16;;;;;;;20.83;10.80;;;0.10;99.90;;;;;;5054813;28;20041;-53
2023/02/10 05:15:42;;;;;;;18.85;10.77;;;0.00;99.90;;;;;;5054498;28;20488;-49
2023/02/10 05:18:09;;;;;;;18.08;10.10;;;0.00;99.90;;;;;;5054493;28;20048;-50
2023/02/10 05:20:36;;;;;;;22.35;11.68;;;0.00;99.90;;;;;;5054748;28;20496;-51
2023/02/10 05:23:03;;;;;;;21.95;11.18;;;0.00;99.90;;;;;;5054149;28;20080;-48
2023/02/10 05:25:29;;;;;;;19.20;11.10;;;0.00;99.90;;;;;;5053127;28;20099;-54
2023/02/10 05:27:56;;;;;;;16.50;10.80;;;0.00;99.90;;;;;;5054560;28;20033;-50
2023/02/10 05:30:23;;;;;;;16.83;10.52;;;0.00;99.90;;;;;;5054237;28;20144;-54
2023/02/10 05:32:49;;;;;;;16.73;11.20;;;0.00;99.90;;;;;;5054311;28;20044;-52
2023/02/10 05:35:16;;;;;;;21.13;11.27;;;0.00;99.90;;;;;;5054202;28;20536;-52
2023/02/10 05:37:43;;;;;;;15.07;10.38;;;0.00;99.90;;;;;;5054114;28;20045;-53
2023/02/10 05:40:10;;;;;;;19.73;12.20;;;0.10;99.90;;;;;;5054356;28;20102;-50
2023/02/10 05:42:37;;;;;;;22.23;12.23;;;0.10;99.90;;;;;;5054212;28;20045;-53
2023/02/10 05:45:03;;;;;;;21.25;12.05;;;0.10;99.90;;;;;;5053965;28;20136;-52
2023/02/10 05:47:30;;;;;;;17.25;12.25;;;0.10;99.90;;;;;;5054141;28;20369;-52
2023/02/10 05:49:57;;;;;;;17.92;11.85;;;0.00;99.90;;;;;;5052687;28;20064;-54
2023/02/10 05:52:23;;;;;;;20.15;13.32;;;0.00;99.90;;;;;;5053896;28;20484;-54
2023/02/10 05:54:50;;;;;;;18.80;12.15;;;-0.10;99.90;;;;;;5054032;28;20122;-52
2023/02/10 05:57:17;;;;;;;23.67;13.85;;;-0.10;99.90;;;;;;5052275;28;20118;-50
2023/02/10 05:59:44;;;;;;;21.60;12.52;;;0.00;99.90;;;;;;5053941;28;20099;-52
2023/02/10 06:02:10;;;;;;;24.00;12.43;;;-0.10;99.90;;;;;;5054154;28;20052;-51
2023/02/10 06:04:37;;;;;;;18.85;11.90;;;0.00;99.90;;;;;;5053745;28;20096;-51
2023/02/10 06:07:04;;;;;;;19.35;13.18;;;0.00;99.90;;;;;;5053319;28;20083;-51
2023/02/10 06:09:31;;;;;;;21.77;13.15;;;-0.10;99.90;;;;;;5052223;28;20045;-53
2023/02/10 06:11:57;;;;;;;22.05;13.63;;;-0.10;99.90;;;;;;5053929;28;20091;-52
2023/02/10 06:14:24;;;;;;;22.67;13.48;;;-0.10;99.90;;;;;;5053284;28;20075;-55
2023/02/10 06:16:51;;;;;;;20.52;13.18;;;-0.20;99.90;;;;;;5053939;28;20044;-53
2023/02/10 06:19:18;;;;;;;23.90;13.23;;;-0.20;99.90;;;;;;5053867;28;20033;-50
2023/02/10 06:21:46;;;;;;;22.02;13.45;;;-0.20;99.90;;;;;;5053652;28;20045;-52
2023/02/10 06:24:13;;;;;;;22.10;13.38;;;-0.20;99.90;;;;;;5053639;28;20040;-53
2023/02/10 06:26:40;;;;;;;18.85;12.88;;;-0.20;99.90;;;;;;5053367;28;20526;-56
2023/02/10 06:29:06;;;;;;;20.55;12.68;;;-0.20;99.90;;;;;;5053127;28;20491;-53
2023/02/10 06:31:33;;;;;;;22.42;13.52;;;-0.20;99.90;;;;;;5053491;28;20099;-49
2023/02/10 06:34:00;;;;;;;19.00;12.93;;;-0.20;99.90;;;;;;5053136;28;20068;-54
2023/02/10 06:36:27;;;;;;;22.08;14.00;;;-0.20;99.90;;;;;;5053121;28;20381;-52
2023/02/10 06:38:53;;;;;;;22.77;12.75;;;-0.10;99.90;;;;;;5052138;28;20036;-55
2023/02/10 06:41:21;;;;;;;19.73;12.13;;;-0.10;99.90;;;;;;5053609;28;20044;-54
2023/02/10 06:43:47;;;;;;;23.10;14.32;;;-0.10;99.90;;;;;;5053257;28;20388;-55
2023/02/10 06:46:15;;;;;;;24.42;14.90;;;-0.20;99.90;;;;;;5053321;28;20037;-54
2023/02/10 06:48:42;;;;;;;23.30;13.30;;;-0.20;99.90;;;;;;5053062;28;20047;-54
2023/02/10 06:51:09;;;;;;;25.08;14.43;;;-0.20;99.90;;;;;;5053328;28;20047;-55
2023/02/10 06:53:36;;;;;;;22.33;13.30;;;-0.20;99.90;;;;;;5052966;28;20076;-53
2023/02/10 06:56:05;;;;;;;21.55;13.60;;;-0.20;99.90;;;;;;5052254;28;20045;-55
2023/02/10 06:58:31;;;;;;;19.45;13.25;;;-0.20;99.90;;;;;;5053626;28;20108;-54
2023/02/10 07:01:00;;;;;;;20.02;13.18;;;-0.20;99.90;;;;;;5053001;28;20094;-52
2023/02/10 07:03:27;;;;;;;20.48;12.95;;;-0.20;99.90;;;;;;5053439;28;20068;-52
2023/02/10 07:05:54;;;;;;;18.77;12.10;;;-0.10;99.90;;;;;;5053185;28;20045;-53
2023/02/10 07:08:20;;;;;;;20.83;13.32;;;-0.10;99.90;;;;;;5053228;28;20411;-53
2023/02/10 07:10:47;;;;;;;17.92;12.32;;;-0.10;99.90;;;;;;5052904;28;20077;-53
2023/02/10 07:13:14;;;;;;;22.73;12.68;;;-0.10;99.90;;;;;;5051820;28;20136;-50
2023/02/10 07:15:41;;;;;;;20.52;12.77;;;0.00;99.90;;;;;;5053158;28;20128;-51
2023/02/10 07:18:08;;;;;;;19.13;12.82;;;0.00;99.90;;;;;;5052699;28;20067;-56
2023/02/10 07:20:35;;;;;;;16.08;11.18;;;0.00;99.90;;;;;;5053031;28;20131;-51
2023/02/10 07:23:02;;;;;;;21.50;12.20;;;0.00;99.90;;;;;;5053070;28;20098;-52
2023/02/10 07:25:28;;;;;;;21.35;12.52;;;0.00;99.90;;;;;;5052903;28;20522;-53
2023/02/10 07:27:55;;;;;;;20.40;13.65;;;0.00;99.90;;;;;;5053066;28;20049;-54
2023/02/10 07:30:22;;;;;;;29.05;17.63;;;0.00;99.90;;;;;;5053248;28;20065;-53
2023/02/10 07:32:49;;;;;;;21.48;14.68;;;0.00;99.90;;;;;;5052710;28;20045;-55
2023/02/10 07:35:15;;;;;;;21.70;14.98;;;0.00;99.90;;;;;;5053037;28;20345;-51
2023/02/10 07:37:42;;;;;;;24.60;15.15;;;0.00;99.90;;;;;;5051610;28;20107;-55
2023/02/10 07:40:09;;;;;;;22.33;14.90;;;0.10;99.90;;;;;;5052717;28;20080;-54
2023/02/10 07:42:36;;;;;;;23.83;14.88;;;0.10;99.90;;;;;;5053235;28;20103;-55
2023/02/10 07:45:21;;;;;;;22.33;14.25;;;0.10;99.90;;;;;;5051667;28;20041;-56
2023/02/10 07:47:48;;;;;;;22.58;14.23;;;0.20;99.90;;;;;;5056577;28;20036;-54
2023/02/10 07:50:15;;;;;;;24.23;13.45;;;0.30;99.90;;;;;;5056348;28;20044;-49
2023/02/10 07:52:43;;;;;;;26.63;14.07;;;0.30;99.90;;;;;;5056384;28;20116;-53
2023/02/10 07:55:10;;;;;;;20.25;12.63;;;0.40;99.90;;;;;;5056090;28;20044;-53
2023/02/10 07:57:38;;;;;;;18.33;11.55;;;0.40;99.90;;;;;;5055321;28;20186;-51
2023/02/10 08:00:05;;;;;;;20.23;12.05;;;0.50;99.90;;;;;;5056398;28;20076;-52
2023/02/10 08:02:38;;;;;;;23.58;14.40;;;0.50;99.90;;;;;;5055585;28;20515;-50
2023/02/10 08:05:05;;;;;;;25.45;14.32;;;0.60;99.90;;;;;;5054237;28;20045;-54
2023/02/10 08:07:31;;;;;;;26.23;15.55;;;0.60;99.90;;;;;;5055032;28;20033;-54
2023/02/10 08:09:58;;;;;;;26.58;14.35;;;0.60;99.90;;;;;;5055405;28;20085;-55
2023/02/10 08:12:25;;;;;;;23.15;15.20;;;0.60;99.90;;;;;;5055678;28;20087;-50
2023/02/10 08:14:51;;;;;;;20.05;15.25;;;0.60;99.90;;;;;;5055252;28;20041;-50
2023/02/10 08:17:18;;;;;;;27.05;15.80;;;0.70;99.90;;;;;;5055773;28;20037;-51
2023/02/10 08:19:45;;;;;;;25.27;16.00;;;0.80;99.90;;;;;;5055430;28;20620;-51
2023/02/10 08:22:12;;;;;;;21.92;15.23;;;0.80;99.90;;;;;;5055721;28;20037;-55
2023/02/10 08:24:38;;;;;;;20.55;14.60;;;0.80;99.90;;;;;;5055737;28;20438;-55
2023/02/10 08:27:05;;;;;;;27.45;15.95;;;0.90;99.90;;;;;;5037647;28;20048;-52
2023/02/10 08:29:32;;;;;;;26.45;16.23;;;1.00;99.90;;;;;;5055680;28;20048;-51
2023/02/10 08:31:59;;;;;;;31.15;16.40;;;1.00;99.90;;;;;;5055340;28;20138;-52
2023/02/10 08:34:27;;;;;;;36.90;19.00;;;1.10;99.90;;;;;;5055221;28;20111;-52
2023/02/10 08:36:54;;;;;;;24.50;14.63;;;1.20;99.90;;;;;;5054073;28;20052;-52
2023/02/10 08:39:21;;;;;;;48.65;15.82;;;1.40;99.90;;;;;;5055362;28;20069;-53
2023/02/10 08:41:48;;;;;;;28.83;14.35;;;1.50;99.90;;;;;;5055166;28;20484;-53
2023/02/10 08:44:14;;;;;;;24.73;16.02;;;1.60;99.90;;;;;;5055071;28;20045;-56
2023/02/10 08:46:41;;;;;;;495.95;54.55;;;1.70;99.90;;;;;;5054903;28;20060;-53
2023/02/10 08:49:08;;;;;;;547.30;79.82;;;1.80;99.90;;;;;;5055080;28;20037;-51
2023/02/10 08:51:35;;;;;;;54.17;19.80;;;1.80;99.90;;;;;;5055180;28;20049;-54
2023/02/10 08:54:02;;;;;;;27.95;15.25;;;1.90;99.90;;;;;;5055228;28;20045;-51
2023/02/10 08:56:30;;;;;;;22.10;14.65;;;1.90;99.90;;;;;;5054562;28;20041;-52
2023/02/10 08:58:56;;;;;;;22.67;12.63;;;2.00;99.90;;;;;;5055076;28;20367;-53
2023/02/10 09:01:25;;;;;;;21.60;12.95;;;2.00;99.90;;;;;;5054781;28;20072;-50
2023/02/10 09:03:55;;;;;;;19.80;13.73;;;2.10;99.90;;;;;;5054992;28;20476;-50
2023/02/10 09:06:22;;;;;;;23.70;14.68;;;2.20;99.90;;;;;;5054917;28;20044;-52
2023/02/10 09:08:49;;;;;;;20.73;13.90;;;2.20;99.90;;;;;;5054284;28;20045;-50
2023/02/10 09:11:15;;;;;;;26.05;14.90;;;2.30;99.90;;;;;;5056092;28;20447;-50
2023/02/10 09:13:42;;;;;;;29.15;16.40;;;2.30;99.90;;;;;;5053932;28;20037;-51
2023/02/10 09:16:09;;;;;;;26.55;16.08;;;2.40;99.90;;;;;;5049839;28;20441;-52
2023/02/10 09:18:36;;;;;;;22.88;12.95;;;2.40;99.90;;;;;;5044593;28;20053;-53
2023/02/10 09:21:02;;;;;;;19.00;11.35;;;2.50;99.90;;;;;;5037429;28;20049;-50
2023/02/10 09:23:29;;;;;;;296.40;33.70;;;2.60;99.90;;;;;;5034144;28;20045;-54
2023/02/10 09:25:56;;;;;;;27.58;12.65;;;2.70;99.90;;;;;;5049311;28;20048;-51
2023/02/10 09:28:23;;;;;;;23.63;14.07;;;2.80;99.90;;;;;;5035296;28;20037;-50
2023/02/10 09:30:50;;;;;;;21.17;13.75;;;2.90;99.90;;;;;;5052397;28;20041;-51
2023/02/10 09:33:16;;;;;;;26.65;13.02;;;3.00;99.90;;;;;;5052805;28;20036;-55
2023/02/10 09:35:43;;;;;;;320.55;30.58;;;3.00;99.90;;;;;;5053131;28;20360;-51
2023/02/10 09:38:10;;;;;;;36.75;14.23;;;3.10;99.90;;;;;;5051911;28;20052;-54
2023/02/10 09:40:37;;;;;;;26.38;12.65;;;3.20;99.90;;;;;;5052825;28;20045;-57
2023/02/10 09:43:03;;;;;;;21.83;13.65;;;3.30;99.90;;;;;;5052664;28;20051;-53
2023/02/10 09:45:30;;;;;;;20.52;12.18;;;3.40;99.90;;;;;;5052625;28;20032;-54
2023/02/10 09:47:59;;;;;;;16.67;10.75;;;3.40;99.90;;;;;;5052664;28;20076;-54
2023/02/10 09:50:26;;;;;;;28.45;11.23;;;3.50;99.90;;;;;;5051458;28;20041;-51
2023/02/10 09:52:53;;;;;;;19.98;10.13;;;3.60;99.90;;;;;;5052512;28;20048;-53
2023/02/10 09:55:20;;;;;;;27.08;10.65;;;3.70;99.90;;;;;;5052410;28;20067;-54
2023/02/10 09:57:47;;;;;;;17.60;9.63;;;3.70;99.90;;;;;;5052425;28;20033;-54
2023/02/10 10:00:13;;;;;;;33.80;9.40;;;3.80;99.90;;;;;;5052576;28;20550;-54
2023/02/10 10:02:40;;;;;;;14.80;8.95;;;3.80;99.90;;;;;;5052826;28;20045;-55
2023/02/10 10:05:07;;;;;;;13.25;8.32;;;3.90;99.90;;;;;;5052589;28;20045;-52
2023/02/10 10:07:38;;;;;;;13.48;8.38;;;4.00;99.90;;;;;;5051749;28;20071;-53
2023/02/10 10:10:05;;;;;;;16.98;8.02;;;4.10;99.90;;;;;;5047791;28;20080;-53
2023/02/10 10:12:31;;;;;;;21.33;7.50;;;4.20;99.90;;;;;;5033542;28;20581;-50
2023/02/10 10:14:58;;;;;;;15.77;7.90;;;4.20;99.90;;;;;;5035289;28;20377;-49
2023/02/10 10:17:25;;;;;;;11.70;7.10;;;4.30;99.90;;;;;;5033175;28;20208;-52
2023/02/10 10:19:52;;;;;;;13.65;7.05;;;4.40;99.90;;;;;;5043449;28;20496;-49
2023/02/10 10:22:19;;;;;;;14.93;5.72;;;4.50;99.90;;;;;;5045401;28;20095;-52
2023/02/10 10:24:46;;;;;;;16.23;6.28;;;4.60;99.90;;;;;;5031547;28;20103;-53
2023/02/10 10:27:13;;;;;;;12.70;5.18;;;4.70;99.90;;;;;;5032965;28;20069;-53
2023/02/10 10:29:40;;;;;;;13.82;5.72;;;4.80;99.90;;;;;;5033349;28;20148;-53
2023/02/10 10:32:07;;;;;;;11.73;4.90;;;4.90;99.90;;;;;;5033475;28;20091;-54
2023/02/10 10:34:35;;;;;;;11.32;5.45;;;4.90;99.90;;;;;;5033054;28;20042;-51
2023/02/10 10:37:01;;;;;;;11.73;4.53;;;5.00;99.90;;;;;;5033410;28;20092;-55
2023/02/10 10:39:28;;;;;;;12.68;5.15;;;5.10;99.90;;;;;;5033008;28;20103;-55
2023/02/10 10:41:55;;;;;;;14.30;4.93;;;5.20;99.90;;;;;;5031785;28;20069;-53
2023/02/10 10:44:22;;;;;;;12.45;5.72;;;5.30;99.90;;;;;;5033123;28;20037;-55
2023/02/10 10:46:48;;;;;;;16.60;5.50;;;5.30;99.90;;;;;;5032674;28;20404;-54
2023/02/10 10:49:15;;;;;;;10.88;5.75;;;5.40;99.90;;;;;;5039024;28;20041;-50
2023/02/10 10:51:42;;;;;;;15.93;6.30;;;5.50;99.90;;;;;;5051975;28;20120;-52
2023/02/10 10:54:09;;;;;;;19.95;6.40;;;5.70;99.90;;;;;;5051694;28;20045;-50
2023/02/10 10:56:36;;;;;;;18.17;7.30;;;5.80;99.90;;;;;;5043941;28;20057;-54
2023/02/10 10:59:02;;;;;;;19.40;6.85;;;5.80;99.90;;;;;;5040277;28;20428;-52
2023/02/10 11:01:29;;;;;;;20.70;7.50;;;5.90;99.90;;;;;;5035641;28;20974;-54
2023/02/10 11:03:56;;;;;;;14.20;6.72;;;5.90;99.90;;;;;;5035391;28;20045;-55
2023/02/10 11:06:23;;;;;;;23.17;6.97;;;6.00;99.90;;;;;;5032564;28;20041;-53
2023/02/10 11:08:50;;;;;;;1999.90;438.52;;;6.10;99.90;;;;;;5034207;28;20377;-52
2023/02/10 11:11:16;;;;;;;98.57;24.20;;;6.20;99.90;;;;;;5032655;28;20204;-54
2023/02/10 11:14:02;;;;;;;30.42;9.98;;;6.20;99.90;;;;;;5030972;28;20050;-53
2023/02/10 11:16:29;;;;;;;18.80;7.93;;;6.30;99.90;;;;;;5032048;28;20385;-53
2023/02/10 11:18:56;;;;;;;14.43;6.38;;;6.40;99.90;;;;;;5030909;28;20485;-53
2023/02/10 11:21:23;;;;;;;16.80;6.00;;;6.50;99.90;;;;;;5034937;28;20100;-53
2023/02/10 11:23:50;;;;;;;8.43;3.70;;;6.60;99.90;;;;;;5035300;28;20042;-53
2023/02/10 11:26:17;;;;;;;16.05;4.82;;;6.70;99.90;;;;;;5033929;28;20049;-54
2023/02/10 11:28:44;;;;;;;17.80;4.90;;;6.70;99.90;;;;;;5035397;28;20373;-52
2023/02/10 11:31:11;;;;;;;12.80;4.57;;;6.80;99.90;;;;;;5035223;28;20535;-54
2023/02/10 11:33:38;;;;;;;14.00;4.15;;;6.90;99.90;;;;;;5035070;28;20041;-54
2023/02/10 11:36:05;;;;;;;9.95;3.60;;;6.90;99.90;;;;;;5035051;28;20050;-56
2023/02/10 11:38:31;;;;;;;14.65;4.80;;;6.90;99.90;;;;;;5036160;28;20065;-54
2023/02/10 11:40:58;;;;;;;122.88;18.23;;;6.90;99.90;;;;;;5036176;28;20428;-53
2023/02/10 11:43:26;;;;;;;15.65;4.45;;;7.00;99.90;;;;;;5036596;28;20056;-54
2023/02/10 11:45:53;;;;;;;22.00;5.53;;;7.00;99.90;;;;;;5036552;28;20042;-56
2023/02/10 11:48:23;;;;;;;15.85;4.63;;;7.10;99.90;;;;;;5036720;28;20476;-56
2023/02/10 11:50:51;;;;;;;16.15;4.80;;;7.10;99.90;;;;;;5036454;28;20481;-55
2023/02/10 11:53:18;;;;;;;18.05;4.30;;;7.10;99.90;;;;;;5036304;28;20115;-56
2023/02/10 11:55:45;;;;;;;19.40;5.28;;;7.10;99.90;;;;;;5036412;28;20049;-53
2023/02/10 12:00:57;;;;;;;20.13;5.53;;;7.20;99.90;;;;;;5036521;28;20041;-53
2023/02/10 12:03:24;;;;;;;40.00;17.05;;;7.20;99.90;;;;;;5036224;28;20426;-56
2023/02/10 12:05:51;;;;;;;16.35;4.85;;;7.20;99.90;;;;;;5035788;28;20053;-55
2023/02/10 12:08:18;;;;;;;14.63;4.40;;;7.20;99.90;;;;;;5035755;28;20484;-55
2023/02/10 12:10:44;;;;;;;16.58;4.20;;;7.20;99.90;;;;;;5035763;28;20054;-55
2023/02/10 12:13:11;;;;;;;475.75;56.92;;;7.20;99.90;;;;;;5034415;28;20087;-53
2023/02/10 12:15:38;;;;;;;213.05;22.83;;;7.30;99.90;;;;;;5036160;28;20053;-53
2023/02/10 12:18:05;;;;;;;17.90;3.80;;;7.30;99.90;;;;;;5035636;28;20045;-55
2023/02/10 12:20:32;;;;;;;19.00;4.10;;;7.30;99.90;;;;;;5034525;28;20099;-49
2023/02/10 12:22:59;;;;;;;13.05;3.40;;;7.40;99.90;;;;;;5035870;28;20503;-54
2023/02/10 12:25:25;;;;;;;11.82;3.30;;;7.40;99.90;;;;;;5035886;28;20419;-53
2023/02/10 12:27:52;;;;;;;19.25;3.83;;;7.50;99.90;;;;;;5035360;28;20080;-53
2023/02/10 12:30:19;;;;;;;16.30;4.05;;;7.50;99.90;;;;;;5035800;28;20038;-51
2023/02/10 12:32:46;;;;;;;12.93;3.97;;;7.60;99.90;;;;;;5035345;28;20045;-51
2023/02/10 12:35:12;;;;;;;16.25;3.83;;;7.60;99.90;;;;;;5035407;28;20053;-50
2023/02/10 12:37:39;;;;;;;15.00;3.83;;;7.70;99.90;;;;;;5035789;28;20053;-51
2023/02/10 12:40:18;;;;;;;19.58;4.05;;;7.70;99.90;;;;;;5035718;28;20126;-55